Skip Navigation LinksHome page > Weather > Current weather Skip Navigation Links

Current Weather

Luton, United Kingdom

For information only: do not use for flight planning or navigation.
Latest weather
Observation time Tuesday, October 19, 2021 11:20 PM BST
Local time Tuesday, October 19, 2021 11:29 PM BST
Flight conditions Low Instrument Meteorological Conditions
Winds
Wind direction South-Southwest (210°)
Wind speed 15 mph
Visibility 5.6 mi.
Present weather light rain, recent rain
Sky condition
Ceiling 400 ft. broken clouds
Cloud layer broken clouds 400 ft.
Cloud layer overcast 900 ft.
Temperature 61°F
Dewpoint 61°F
Altimeter 29.71 in.Hg
Derived measurements
Relative humidity 100%
Density altitude 614 ft.
Remarks
Fully automated report.
METAR EGGW 192220Z AUTO 21013KT 9000 -RA BKN004/// OVC009/// //////TCU 16/16 Q1006 RERA REDZ

Settings

Location code

InnerDrive.Weather 4.0.6770.0 Release CLR 4.0.30319.42000
Copyright ©2018 Inner Drive Technology. All rights reserved. Portions Copyright ©1986-2018 David Braverman.

Find weather

Site navigation


Skip Navigation Links

Place info

Page info

PayPal - The safer, easier way to pay online!

Return home.

Copyright ©2021 Inner Drive Technology. Purveyors of fine, hand-crafted computer software. Page printed 2021-10-19T22:29:10 UTC.